createdAt,value
2023-10-27T00:00:49.754Z,15.60
2023-10-27T00:03:17.758Z,15.69
2023-10-27T00:05:45.496Z,15.81
2023-10-27T00:08:14.987Z,15.66
2023-10-27T00:10:42.810Z,15.80
2023-10-27T00:13:10.416Z,15.70
2023-10-27T00:15:38.148Z,15.62
2023-10-27T00:18:06.156Z,15.66
2023-10-27T00:20:33.810Z,15.72
2023-10-27T00:23:01.315Z,15.75
2023-10-27T00:25:29.110Z,16.11
2023-10-27T00:27:56.695Z,16.21
2023-10-27T00:30:24.226Z,15.85
2023-10-27T00:32:52.046Z,15.82
2023-10-27T00:35:19.900Z,15.85
2023-10-27T00:37:47.461Z,15.77
2023-10-27T00:40:15.308Z,16.04
2023-10-27T00:42:43.005Z,15.96
2023-10-27T00:45:10.805Z,15.97
2023-10-27T00:47:38.703Z,16.06
2023-10-27T00:50:06.931Z,16.03
2023-10-27T00:52:34.729Z,16.00
2023-10-27T00:55:02.895Z,16.30
2023-10-27T00:57:30.668Z,16.10
2023-10-27T00:59:59.172Z,16.12
2023-10-27T01:02:27.600Z,16.16
2023-10-27T01:04:55.372Z,16.05
2023-10-27T01:07:25.157Z,16.22
2023-10-27T01:09:53.246Z,16.35
2023-10-27T01:12:20.942Z,16.45
2023-10-27T01:14:48.499Z,16.19
2023-10-27T01:17:16.245Z,16.24
2023-10-27T01:19:44.298Z,16.10
2023-10-27T01:22:16.281Z,16.35
2023-10-27T01:24:44.256Z,16.37
2023-10-27T01:27:11.912Z,16.16
2023-10-27T01:29:39.515Z,16.07
2023-10-27T01:32:07.414Z,16.00
2023-10-27T01:34:35.118Z,16.02
2023-10-27T01:37:02.713Z,16.03
2023-10-27T01:39:30.788Z,16.03
2023-10-27T01:41:58.216Z,15.88
2023-10-27T01:44:25.733Z,16.26
2023-10-27T01:46:53.539Z,16.34
2023-10-27T01:49:21.003Z,16.53
2023-10-27T01:51:48.730Z,16.44
2023-10-27T01:54:16.730Z,16.56
2023-10-27T01:56:44.310Z,16.68
2023-10-27T01:59:11.899Z,16.70
2023-10-27T02:01:40.297Z,16.87
2023-10-27T02:04:08.304Z,16.89
2023-10-27T02:06:35.819Z,16.97
2023-10-27T02:09:03.740Z,17.03
2023-10-27T02:11:31.960Z,17.01
2023-10-27T02:13:59.459Z,16.99
2023-10-27T02:16:27.127Z,17.02
2023-10-27T02:18:54.946Z,16.96
2023-10-27T02:21:22.879Z,16.91
2023-10-27T02:23:50.805Z,17.18
2023-10-27T02:26:18.460Z,17.11
2023-10-27T02:28:46.577Z,17.14
2023-10-27T02:31:14.407Z,17.16
2023-10-27T02:33:42.093Z,17.25
2023-10-27T02:36:10.139Z,17.37
2023-10-27T02:38:38.215Z,17.48
2023-10-27T02:41:10.603Z,17.52
2023-10-27T02:43:42.091Z,17.54
2023-10-27T02:46:13.577Z,17.67
2023-10-27T02:48:43.348Z,17.59
2023-10-27T02:51:13.218Z,17.55
2023-10-27T02:53:41.660Z,17.56
2023-10-27T02:56:10.621Z,17.51
2023-10-27T02:58:38.448Z,17.75
2023-10-27T03:01:11.564Z,17.37
2023-10-27T03:03:40.258Z,17.48
2023-10-27T03:06:08.783Z,17.46
2023-10-27T03:08:36.306Z,17.72
2023-10-27T03:11:04.124Z,17.86
2023-10-27T03:13:33.079Z,17.61
2023-10-27T03:16:01.623Z,17.83
2023-10-27T03:18:29.316Z,17.54
2023-10-27T03:20:58.612Z,17.71
2023-10-27T03:23:29.153Z,17.58
2023-10-27T03:25:57.088Z,17.71
2023-10-27T03:28:24.919Z,17.82
2023-10-27T03:30:52.478Z,17.58
2023-10-27T03:33:20.366Z,17.78
2023-10-27T03:35:48.607Z,18.01
2023-10-27T03:38:16.292Z,17.72
2023-10-27T03:40:44.885Z,17.65
2023-10-27T03:43:12.456Z,17.62
2023-10-27T03:45:40.434Z,17.57
2023-10-27T03:48:08.337Z,17.59
2023-10-27T03:50:36.304Z,17.62
2023-10-27T03:53:04.362Z,17.48
2023-10-27T03:55:32.223Z,17.49
2023-10-27T03:58:20.151Z,17.73
2023-10-27T04:00:50.818Z,17.70
2023-10-27T04:03:18.805Z,17.70
2023-10-27T04:05:46.418Z,17.87
2023-10-27T04:08:14.149Z,17.79
2023-10-27T04:10:42.561Z,17.77
2023-10-27T04:13:10.095Z,18.11
2023-10-27T04:15:37.704Z,18.15
2023-10-27T04:18:05.785Z,17.48
2023-10-27T04:20:33.549Z,17.90
2023-10-27T04:23:01.603Z,17.85
2023-10-27T04:25:29.582Z,17.88
2023-10-27T04:27:57.413Z,17.99
2023-10-27T04:30:26.091Z,17.75
2023-10-27T04:32:54.007Z,17.89
2023-10-27T04:35:21.749Z,17.50
2023-10-27T04:37:49.394Z,17.74
2023-10-27T04:40:17.352Z,17.54
2023-10-27T04:42:48.442Z,17.44
2023-10-27T04:45:17.409Z,17.54
2023-10-27T04:47:45.548Z,17.60
2023-10-27T04:50:13.229Z,17.48
2023-10-27T04:52:40.913Z,17.26
2023-10-27T04:55:11.479Z,17.41
2023-10-27T04:57:40.537Z,17.21
2023-10-27T05:00:09.628Z,17.22
2023-10-27T05:02:37.591Z,17.14
2023-10-27T05:05:05.717Z,17.53
2023-10-27T05:07:38.489Z,17.01
2023-10-27T05:10:09.149Z,17.12
2023-10-27T05:12:37.615Z,17.20
2023-10-27T05:15:06.283Z,17.24
2023-10-27T05:17:36.078Z,16.94
2023-10-27T05:20:06.732Z,17.31
2023-10-27T05:22:34.705Z,17.22
2023-10-27T05:25:06.956Z,17.70
2023-10-27T05:27:34.980Z,17.35
2023-10-27T05:30:03.366Z,17.27
2023-10-27T05:32:34.152Z,16.93
2023-10-27T05:35:02.220Z,17.24
2023-10-27T05:37:30.064Z,17.45
2023-10-27T05:39:57.616Z,17.22
2023-10-27T05:42:25.789Z,17.00
2023-10-27T05:44:53.303Z,16.91
2023-10-27T05:47:20.855Z,17.23
2023-10-27T05:49:49.125Z,16.88
2023-10-27T05:52:17.358Z,16.88
2023-10-27T05:54:47.211Z,16.99
2023-10-27T05:57:16.377Z,17.06
2023-10-27T05:59:44.439Z,17.26
2023-10-27T06:02:15.720Z,17.09
2023-10-27T06:04:44.671Z,17.18
2023-10-27T06:07:16.838Z,17.14
2023-10-27T06:09:45.796Z,16.81
2023-10-27T06:12:13.635Z,16.78
2023-10-27T06:14:45.845Z,16.90
2023-10-27T06:17:14.727Z,16.79
2023-10-27T06:20:16.756Z,16.86
2023-10-27T06:22:46.099Z,16.68
2023-10-27T06:25:13.910Z,16.89
2023-10-27T06:27:41.432Z,17.02
2023-10-27T06:30:09.538Z,16.81
2023-10-27T06:32:37.375Z,16.92
2023-10-27T06:35:05.357Z,16.61
2023-10-27T06:37:33.519Z,16.56
2023-10-27T06:40:02.689Z,16.88
2023-10-27T06:42:32.001Z,17.29
2023-10-27T06:45:01.769Z,17.17
2023-10-27T06:47:29.737Z,17.02
2023-10-27T06:49:57.638Z,16.86
2023-10-27T06:52:25.584Z,16.93
2023-10-27T06:54:53.241Z,17.12
2023-10-27T06:57:20.854Z,17.21
2023-10-27T06:59:48.881Z,17.28
2023-10-27T07:02:16.630Z,17.26
2023-10-27T07:04:44.545Z,17.34
2023-10-27T07:07:25.279Z,17.22
2023-10-27T07:09:55.466Z,17.24
2023-10-27T07:12:23.557Z,17.32
2023-10-27T07:14:51.272Z,17.39
2023-10-27T07:17:18.767Z,17.46
2023-10-27T07:19:46.713Z,17.30
2023-10-27T07:22:14.908Z,17.03
2023-10-27T07:24:42.513Z,17.37
2023-10-27T07:27:10.458Z,17.13
2023-10-27T07:29:37.960Z,17.20
2023-10-27T07:32:06.082Z,17.40
2023-10-27T07:34:34.515Z,17.29
2023-10-27T07:37:05.340Z,17.20
2023-10-27T07:39:33.137Z,17.13
2023-10-27T07:42:01.052Z,17.19
2023-10-27T07:44:28.554Z,17.51
2023-10-27T07:46:56.187Z,17.25
2023-10-27T07:49:24.523Z,16.87
2023-10-27T07:51:52.394Z,17.05
2023-10-27T07:54:19.867Z,17.09
2023-10-27T07:56:47.778Z,17.37
2023-10-27T07:59:15.584Z,17.17
2023-10-27T08:01:43.250Z,17.30
2023-10-27T08:04:11.509Z,17.33
2023-10-27T08:06:39.164Z,17.15
2023-10-27T08:09:07.867Z,17.08
2023-10-27T08:11:35.728Z,17.23
2023-10-27T08:14:05.482Z,17.31
2023-10-27T08:16:33.342Z,17.45
2023-10-27T08:19:02.658Z,17.12
2023-10-27T08:21:30.467Z,17.29
2023-10-27T08:23:58.009Z,16.92
2023-10-27T08:26:25.939Z,17.17
2023-10-27T08:28:53.374Z,17.36
2023-10-27T08:32:03.358Z,17.09
2023-10-27T08:34:31.672Z,17.38
2023-10-27T08:36:59.268Z,17.09
2023-10-27T08:39:27.184Z,17.31
2023-10-27T08:41:55.360Z,17.13
2023-10-27T08:44:25.819Z,17.31
2023-10-27T08:46:55.248Z,17.58
2023-10-27T08:49:23.368Z,17.52
2023-10-27T08:51:50.936Z,17.08
2023-10-27T08:54:19.195Z,17.23
2023-10-27T08:56:47.166Z,17.55
2023-10-27T08:59:15.444Z,17.64
2023-10-27T09:01:44.778Z,17.37
2023-10-27T09:04:14.213Z,17.49
2023-10-27T09:06:43.123Z,17.53
2023-10-27T09:09:13.571Z,17.56
2023-10-27T09:11:43.443Z,17.60
2023-10-27T09:14:18.826Z,17.59
2023-10-27T09:16:47.420Z,17.41
2023-10-27T09:19:22.948Z,17.53
2023-10-27T09:21:50.866Z,17.72
2023-10-27T09:24:25.723Z,17.54
2023-10-27T09:26:54.509Z,17.59
2023-10-27T09:29:22.673Z,17.41
2023-10-27T09:31:51.647Z,17.82
2023-10-27T09:34:27.127Z,17.52
2023-10-27T09:36:57.113Z,17.64
2023-10-27T09:39:25.254Z,17.56
2023-10-27T09:42:04.771Z,17.99
2023-10-27T09:44:53.231Z,17.86
2023-10-27T09:47:46.428Z,18.10
2023-10-27T09:50:15.816Z,18.21
2023-10-27T09:52:48.136Z,17.65
2023-10-27T09:55:18.310Z,17.26
2023-10-27T09:57:46.705Z,17.84
2023-10-27T10:00:17.645Z,17.92
2023-10-27T10:02:45.735Z,17.66
2023-10-27T10:05:13.403Z,17.77
2023-10-27T10:07:44.816Z,17.72
2023-10-27T10:10:19.676Z,18.14
2023-10-27T10:13:02.943Z,17.94
2023-10-27T10:15:32.898Z,18.00
2023-10-27T10:18:01.997Z,18.06
2023-10-27T10:20:45.946Z,18.02
2023-10-27T10:23:13.737Z,17.41
2023-10-27T10:25:54.549Z,17.71
2023-10-27T10:28:28.506Z,18.11
2023-10-27T10:31:08.315Z,18.05
2023-10-27T10:33:40.259Z,18.30
2023-10-27T10:36:19.519Z,18.16
2023-10-27T10:38:58.558Z,17.65
2023-10-27T10:41:54.748Z,17.76
2023-10-27T10:44:22.697Z,18.03
2023-10-27T10:46:51.207Z,18.37
2023-10-27T10:49:28.225Z,18.45
2023-10-27T10:51:59.014Z,18.56
2023-10-27T10:54:34.046Z,18.37
2023-10-27T10:57:09.931Z,18.54
2023-10-27T10:59:38.093Z,18.72
2023-10-27T11:02:07.950Z,18.27
2023-10-27T11:07:06.825Z,18.12
2023-10-27T11:09:34.777Z,18.59
2023-10-27T11:12:04.915Z,18.28
2023-10-27T11:14:42.862Z,18.20
2023-10-27T11:17:12.998Z,18.27
2023-10-27T11:19:54.738Z,18.30
2023-10-27T11:22:24.992Z,18.71
2023-10-27T11:24:53.887Z,18.83
2023-10-27T11:27:26.218Z,18.94
2023-10-27T11:30:02.982Z,18.63
2023-10-27T11:32:32.392Z,18.83
2023-10-27T11:35:00.518Z,18.68
2023-10-27T11:37:30.888Z,18.54
2023-10-27T11:40:12.822Z,18.62
2023-10-27T11:42:40.753Z,18.47
2023-10-27T11:45:08.363Z,18.46
2023-10-27T11:47:57.066Z,18.36
2023-10-27T11:50:25.365Z,18.39
2023-10-27T11:52:52.977Z,18.35
2023-10-27T11:55:21.088Z,18.24
2023-10-27T11:57:49.597Z,18.01
2023-10-27T12:00:17.183Z,18.43
2023-10-27T12:02:45.076Z,18.72
2023-10-27T12:05:12.646Z,18.54
2023-10-27T12:07:40.274Z,18.30
2023-10-27T12:10:12.252Z,18.45
2023-10-27T12:12:40.097Z,18.32
2023-10-27T12:15:08.832Z,17.98
2023-10-27T12:17:36.411Z,17.74
2023-10-27T12:20:07.984Z,17.45
2023-10-27T12:22:36.124Z,17.66
2023-10-27T12:25:07.170Z,17.82
2023-10-27T12:27:34.655Z,18.02
2023-10-27T12:30:03.032Z,17.10
2023-10-27T12:32:34.181Z,17.13
2023-10-27T12:35:02.270Z,16.60
2023-10-27T12:37:32.231Z,16.79
2023-10-27T12:39:59.951Z,16.60
2023-10-27T12:42:29.711Z,16.36
2023-10-27T12:44:58.482Z,16.89
2023-10-27T12:47:29.838Z,16.61
2023-10-27T12:49:59.831Z,16.64
2023-10-27T12:52:28.700Z,16.73
2023-10-27T12:54:59.228Z,16.67
2023-10-27T12:57:27.301Z,16.68
2023-10-27T12:59:55.974Z,16.21
2023-10-27T13:02:25.010Z,16.52
2023-10-27T13:04:53.372Z,16.07
2023-10-27T13:07:21.165Z,16.13
2023-10-27T13:09:48.680Z,16.50
2023-10-27T13:12:17.044Z,16.34
2023-10-27T13:14:44.853Z,16.17
2023-10-27T13:17:13.074Z,16.18
2023-10-27T13:19:41.238Z,16.21
2023-10-27T13:22:09.302Z,16.46
2023-10-27T13:24:39.621Z,16.55
2023-10-27T13:27:09.911Z,16.28
2023-10-27T13:29:38.561Z,16.12
2023-10-27T13:32:06.464Z,16.38
2023-10-27T13:34:34.896Z,15.95
2023-10-27T13:37:03.372Z,15.94
2023-10-27T13:39:32.801Z,16.28
2023-10-27T13:42:03.066Z,15.96
2023-10-27T13:44:31.173Z,15.97
2023-10-27T13:47:00.921Z,15.86
2023-10-27T13:49:28.898Z,16.04
2023-10-27T13:51:56.759Z,15.72
2023-10-27T13:54:24.820Z,15.90
2023-10-27T13:56:52.766Z,15.84
2023-10-27T13:59:20.254Z,15.59
2023-10-27T14:01:49.610Z,15.65
2023-10-27T14:04:18.158Z,15.82
2023-10-27T14:06:48.962Z,15.59
2023-10-27T14:09:16.973Z,15.66
2023-10-27T14:11:46.391Z,16.02
2023-10-27T14:14:16.934Z,15.42
2023-10-27T14:16:45.197Z,15.61
2023-10-27T14:19:49.700Z,15.49
2023-10-27T14:22:18.382Z,15.35
2023-10-27T14:24:47.599Z,15.29
2023-10-27T14:27:16.686Z,15.32
2023-10-27T14:29:44.761Z,15.09
2023-10-27T14:32:12.439Z,15.03
2023-10-27T14:34:41.701Z,15.18
2023-10-27T14:37:09.681Z,15.24
2023-10-27T14:39:42.329Z,14.95
2023-10-27T14:42:10.287Z,14.99
2023-10-27T14:44:38.077Z,15.01
2023-10-27T14:47:05.784Z,15.34
2023-10-27T14:49:33.853Z,15.23
2023-10-27T14:52:01.463Z,15.27
2023-10-27T14:54:37.322Z,15.35
2023-10-27T14:57:05.409Z,15.17
2023-10-27T14:59:33.323Z,15.24
2023-10-27T15:02:01.382Z,15.33
2023-10-27T15:04:29.416Z,15.55
2023-10-27T15:06:58.081Z,15.14
2023-10-27T15:09:25.616Z,15.23
2023-10-27T15:11:53.402Z,14.90
2023-10-27T15:14:20.944Z,14.79
2023-10-27T15:16:48.840Z,14.97
2023-10-27T15:19:16.999Z,15.08
2023-10-27T15:21:45.239Z,15.01
2023-10-27T15:24:12.971Z,15.00
2023-10-27T15:26:40.913Z,15.16
2023-10-27T15:29:08.794Z,15.04
2023-10-27T15:31:38.617Z,15.15
2023-10-27T15:34:06.940Z,14.98
2023-10-27T15:36:34.646Z,15.24
2023-10-27T15:39:05.445Z,15.48
2023-10-27T15:41:40.017Z,15.36
2023-10-27T15:44:08.192Z,15.30
2023-10-27T15:46:36.668Z,15.22
2023-10-27T15:49:04.462Z,15.57
2023-10-27T15:51:31.943Z,15.26
2023-10-27T15:54:01.286Z,15.60
2023-10-27T15:56:30.659Z,15.38
2023-10-27T15:59:03.399Z,15.50
2023-10-27T16:01:31.709Z,15.07
2023-10-27T16:03:59.893Z,15.54
2023-10-27T16:06:27.921Z,15.35
2023-10-27T16:08:56.753Z,15.37
2023-10-27T16:11:25.394Z,15.40
2023-10-27T16:13:52.937Z,15.46
2023-10-27T16:16:20.749Z,15.54
2023-10-27T16:18:49.227Z,15.31
2023-10-27T16:21:17.309Z,15.07
2023-10-27T16:23:45.044Z,15.23
2023-10-27T16:26:15.290Z,15.44
2023-10-27T16:28:46.018Z,15.54
2023-10-27T16:31:13.957Z,15.41
2023-10-27T16:33:43.240Z,15.58
2023-10-27T16:36:11.577Z,15.34
2023-10-27T16:38:40.939Z,15.40
2023-10-27T16:41:09.763Z,15.26
2023-10-27T16:43:45.698Z,15.06
2023-10-27T16:46:14.233Z,15.30
2023-10-27T16:48:42.127Z,15.68
2023-10-27T16:51:14.604Z,15.17
2023-10-27T16:53:43.245Z,15.55
2023-10-27T16:56:14.112Z,15.30
2023-10-27T16:58:42.434Z,15.49
2023-10-27T17:01:10.474Z,15.31
2023-10-27T17:04:04.860Z,15.65
2023-10-27T17:06:38.774Z,15.30
2023-10-27T17:09:31.872Z,15.43
2023-10-27T17:12:01.546Z,15.37
2023-10-27T17:14:29.931Z,15.42
2023-10-27T17:16:57.676Z,15.29
2023-10-27T17:19:25.882Z,15.64
2023-10-27T17:21:58.550Z,15.62
2023-10-27T17:24:26.973Z,15.60
2023-10-27T17:26:56.030Z,15.78
2023-10-27T17:29:24.026Z,15.37
2023-10-27T17:31:52.235Z,15.31
2023-10-27T17:34:20.417Z,15.35
2023-10-27T17:36:51.393Z,15.60
2023-10-27T17:39:19.265Z,15.58
2023-10-27T17:41:47.760Z,15.65
2023-10-27T17:44:18.742Z,15.42
2023-10-27T17:46:47.235Z,15.38
2023-10-27T17:49:18.417Z,15.41
2023-10-27T17:51:46.309Z,15.43
2023-10-27T17:54:14.472Z,15.44
2023-10-27T17:56:42.490Z,15.53
2023-10-27T17:59:10.524Z,15.41
2023-10-27T18:01:39.097Z,15.44
2023-10-27T18:04:08.067Z,15.46
2023-10-27T18:06:38.368Z,15.50
2023-10-27T18:09:06.451Z,15.72
2023-10-27T18:11:36.339Z,15.31
2023-10-27T18:14:05.396Z,15.83
2023-10-27T18:16:33.616Z,15.75
2023-10-27T18:19:01.747Z,15.18
2023-10-27T18:21:31.334Z,15.10
2023-10-27T18:23:59.859Z,15.16
2023-10-27T18:26:27.741Z,15.52
2023-10-27T18:28:55.355Z,15.62
2023-10-27T18:31:24.028Z,15.59
2023-10-27T18:33:52.321Z,15.30
2023-10-27T18:36:22.816Z,15.33
2023-10-27T18:38:50.546Z,15.30
2023-10-27T18:41:18.828Z,15.15
2023-10-27T18:43:49.388Z,14.97
2023-10-27T18:46:19.144Z,15.42
2023-10-27T18:48:50.277Z,15.33
2023-10-27T18:51:19.172Z,15.32
2023-10-27T18:53:49.949Z,15.46
2023-10-27T18:56:20.938Z,15.00
2023-10-27T18:58:49.041Z,15.20
2023-10-27T19:01:17.745Z,15.26
2023-10-27T19:03:49.681Z,15.41
2023-10-27T19:06:19.488Z,15.14
2023-10-27T19:08:47.632Z,15.28
2023-10-27T19:11:16.169Z,15.42
2023-10-27T19:13:44.296Z,15.40
2023-10-27T19:16:15.429Z,15.54
2023-10-27T19:18:47.384Z,15.53
2023-10-27T19:21:18.412Z,15.37
2023-10-27T19:23:51.504Z,15.43
2023-10-27T19:26:21.602Z,15.11
2023-10-27T19:28:51.061Z,15.58
2023-10-27T19:31:20.934Z,15.29
2023-10-27T19:33:49.557Z,15.41
2023-10-27T19:36:20.561Z,15.34
2023-10-27T19:38:50.073Z,15.50
2023-10-27T19:41:17.877Z,15.39
2023-10-27T19:46:08.987Z,15.94
2023-10-27T19:48:38.902Z,15.94
2023-10-27T19:51:06.885Z,15.50
2023-10-27T19:53:37.430Z,15.27
2023-10-27T19:56:10.887Z,15.44
2023-10-27T19:58:38.945Z,15.92
2023-10-27T20:01:18.838Z,15.55
2023-10-27T20:03:49.151Z,15.55
2023-10-27T20:06:17.102Z,15.60
2023-10-27T20:08:44.948Z,15.35
2023-10-27T20:11:14.538Z,15.51
2023-10-27T20:13:45.217Z,15.66
2023-10-27T20:16:14.967Z,15.50
2023-10-27T20:18:43.801Z,15.54
2023-10-27T20:21:12.838Z,15.61
2023-10-27T20:23:43.881Z,15.28
2023-10-27T20:26:12.098Z,15.38
2023-10-27T20:28:41.216Z,15.48
2023-10-27T20:31:09.206Z,15.39
2023-10-27T20:33:37.183Z,15.46
2023-10-27T20:36:06.702Z,15.56
2023-10-27T20:38:35.176Z,15.55
2023-10-27T20:41:03.176Z,15.50
2023-10-27T20:43:31.276Z,15.65
2023-10-27T20:46:04.297Z,15.76
2023-10-27T20:48:32.457Z,15.64
2023-10-27T20:51:04.546Z,15.79
2023-10-27T20:53:32.638Z,15.64
2023-10-27T20:56:00.726Z,15.74
2023-10-27T20:58:28.879Z,15.60
2023-10-27T21:00:56.691Z,15.70
2023-10-27T21:03:24.679Z,15.85
2023-10-27T21:05:52.957Z,15.71
2023-10-27T21:08:20.857Z,15.58
2023-10-27T21:10:52.241Z,15.45
2023-10-27T21:13:20.583Z,15.62
2023-10-27T21:15:48.154Z,15.58
2023-10-27T21:18:16.140Z,15.40
2023-10-27T21:20:44.263Z,15.43
2023-10-27T21:23:11.869Z,15.42
2023-10-27T21:25:40.692Z,15.55
2023-10-27T21:28:09.626Z,15.73
2023-10-27T21:30:37.494Z,15.60
2023-10-27T21:33:05.734Z,15.57
2023-10-27T21:35:34.032Z,15.49
2023-10-27T21:38:01.878Z,15.52
2023-10-27T21:40:30.202Z,15.44
2023-10-27T21:42:58.898Z,15.64
2023-10-27T21:45:27.213Z,15.59
2023-10-27T21:47:55.289Z,15.39
2023-10-27T21:50:23.625Z,15.40
2023-10-27T21:52:51.530Z,15.28
2023-10-27T21:55:19.859Z,15.40
2023-10-27T21:57:48.298Z,15.47
2023-10-27T22:00:32.599Z,15.26
2023-10-27T22:03:01.616Z,15.34
2023-10-27T22:05:29.441Z,15.32
2023-10-27T22:07:57.458Z,15.41
2023-10-27T22:10:25.574Z,15.22
2023-10-27T22:12:53.388Z,15.22
2023-10-27T22:15:24.603Z,15.06
2023-10-27T22:17:53.023Z,15.16
2023-10-27T22:20:20.677Z,14.88
2023-10-27T22:22:49.930Z,14.85
2023-10-27T22:25:19.388Z,14.75
2023-10-27T22:27:47.074Z,14.78
2023-10-27T22:30:15.120Z,14.49
2023-10-27T22:32:43.173Z,14.78
2023-10-27T22:35:11.639Z,14.91
2023-10-27T22:37:42.160Z,15.16
2023-10-27T22:40:11.168Z,15.13
2023-10-27T22:42:39.074Z,14.92
2023-10-27T22:45:07.316Z,15.23
2023-10-27T22:47:35.393Z,15.25
2023-10-27T22:50:05.657Z,15.08
2023-10-27T22:52:33.233Z,15.16
2023-10-27T22:55:01.527Z,15.33
2023-10-27T22:57:31.280Z,15.14
2023-10-27T22:59:59.340Z,15.20
2023-10-27T23:02:27.845Z,14.96
2023-10-27T23:04:56.312Z,15.28
2023-10-27T23:07:25.406Z,15.10
2023-10-27T23:09:53.496Z,15.22
2023-10-27T23:12:21.516Z,15.31
2023-10-27T23:14:49.151Z,15.34
2023-10-27T23:17:17.640Z,15.22
2023-10-27T23:19:45.673Z,15.42
2023-10-27T23:22:13.919Z,15.46
2023-10-27T23:24:43.437Z,15.44
2023-10-27T23:27:11.334Z,15.60
2023-10-27T23:29:38.790Z,15.25
2023-10-27T23:32:07.196Z,15.42
2023-10-27T23:34:35.304Z,15.65
2023-10-27T23:37:03.858Z,15.52
2023-10-27T23:39:32.546Z,15.55
2023-10-27T23:42:00.646Z,15.64
2023-10-27T23:44:30.736Z,15.45
2023-10-27T23:46:59.015Z,15.47
2023-10-27T23:49:26.777Z,15.40
2023-10-27T23:51:54.274Z,15.62
2023-10-27T23:54:22.877Z,15.62
2023-10-27T23:56:50.737Z,15.48
2023-10-27T23:59:18.595Z,15.64
